Hovedside
METAR-TAF:

METAR-TAF

Lufthavner :

Roskilde, Danmark

Roskilde lufthavn

breddegrad: 55-35N, lengdegrad: 012-08E, høyde over havet: 44 m

Gjeldene værobservasjon

Denne rapporten ble laget for 5 minutter siden, klokken 13:50 UTC
Vind 6 kt fra Øst-nordøst, skiftende mellom Nord og Øst
Temperatur -2°C
Luftfuktighet 54%
Trykk 1035 hPa
Sikt 10 km eller mer

METAR: EKRK 251350Z AUTO 06006KT 010V100 9999NDV SCT035/// M02/M10 Q1035 R99/710195

Tid: 14:55 (13:55 UTC)

Varsel

Denne rapporten ble laget for 2 timer og 35 minutter siden, klokken 11:20 UTC
Varsel gyldig fra 25. klokken 12 UTC til 25. klokken 21 UTC
Vind 10 kt fra Nordøst
Sikt 10 km eller mer
Spredte skyer i en høyde av 2500 ft

TAF: EKRK 251120Z 2512/2521 04010KT 9999 SCT025

Værobservasjoner og værvarsel for over 4000 flyplasser (METAR- og TAF-rapporter).

Tilgjengelige stasjoner er representert av de røde og gule prikkene på kartet.

Hold musepekeren over prikken for å se navnet på stasjonen.

Klikk så for å se værobservasjoner og -varsler.

For å forandre kartet kan du klikke på den grønne knappen med svart kryss for å zoome inn, på den grønne knappen med strek for å zoome ut, eller på de grønne pilene for å se tilstøtende kart.


METAR-TAF: